Time;durP1;ratioP1;P1;durP2;ratioP2;P2;SDS_P1;SDS_P2;PMS_P1;PMS_P2;Temp;Humidity;BMP_temperature;BMP_pressure;BME280_temperature;BME280_humidity;BME280_pressure;Samples;Min_cycle;Max_cycle;Signal;HPM_P1;HPM_P2
2023/10/31 00:00:45;;;;;;;0.10;0.10;;;11.20;99.90;;;;;;5051749;28;20454;-79
2023/10/31 00:03:11;;;;;;;0.10;0.10;;;11.10;99.90;;;;;;5049181;28;20378;-79
2023/10/31 00:05:37;;;;;;;0.00;0.00;;;11.10;99.90;;;;;;5050733;28;20064;-77
2023/10/31 00:08:03;;;;;;;0.10;0.10;;;11.00;99.90;;;;;;5031757;28;20034;-78
2023/10/31 00:10:30;;;;;;;0.10;0.10;;;11.00;99.90;;;;;;5050508;28;20454;-79
2023/10/31 00:12:56;;;;;;;0.10;0.10;;;10.90;99.90;;;;;;5049303;28;20367;-77
2023/10/31 00:15:24;;;;;;;1.00;1.00;;;10.90;99.90;;;;;;5049301;28;20049;-76
2023/10/31 00:17:50;;;;;;;0.08;0.08;;;10.90;99.90;;;;;;5048384;28;20037;-74
2023/10/31 00:20:17;;;;;;;0.10;0.10;;;10.80;99.90;;;;;;5046952;28;20040;-75
2023/10/31 00:22:43;;;;;;;0.10;0.10;;;10.80;99.90;;;;;;5034377;28;20033;-75
2023/10/31 00:25:09;;;;;;;0.00;0.00;;;10.70;99.90;;;;;;5048646;28;20033;-74
2023/10/31 00:27:35;;;;;;;0.00;0.00;;;10.70;99.90;;;;;;5049753;28;20359;-74
2023/10/31 00:30:01;;;;;;;0.10;0.10;;;10.70;99.90;;;;;;5050110;28;20029;-73
2023/10/31 00:32:28;;;;;;;0.10;0.10;;;10.60;99.90;;;;;;5029280;28;20454;-75
2023/10/31 00:34:54;;;;;;;0.10;0.10;;;10.50;99.90;;;;;;5049241;28;20035;-74
2023/10/31 00:37:20;;;;;;;0.10;0.10;;;10.50;99.90;;;;;;5050265;28;20036;-74
2023/10/31 00:39:46;;;;;;;0.20;0.20;;;10.50;99.90;;;;;;5031711;28;20037;-74
2023/10/31 00:42:12;;;;;;;0.10;0.10;;;10.50;99.90;;;;;;5049639;28;20032;-75
2023/10/31 00:44:39;;;;;;;0.00;0.00;;;10.50;99.90;;;;;;5048654;28;20028;-74
2023/10/31 00:47:06;;;;;;;0.10;0.10;;;10.50;99.90;;;;;;5047676;28;20059;-74
2023/10/31 00:49:32;;;;;;;0.05;0.05;;;10.40;99.90;;;;;;5030791;28;20041;-74
2023/10/31 00:51:59;;;;;;;0.05;0.05;;;10.40;99.90;;;;;;5049400;28;20033;-75
2023/10/31 00:54:25;;;;;;;0.15;0.10;;;10.50;99.90;;;;;;5049984;28;20040;-74
2023/10/31 00:56:51;;;;;;;0.03;0.03;;;10.50;99.90;;;;;;5047942;28;20040;-75
2023/10/31 00:59:18;;;;;;;0.00;0.00;;;10.50;99.90;;;;;;5047358;28;20029;-73
2023/10/31 01:01:44;;;;;;;0.10;0.10;;;10.40;99.90;;;;;;5029606;28;20041;-74
2023/10/31 01:04:11;;;;;;;0.30;0.30;;;10.40;99.90;;;;;;5049493;28;20029;-73
2023/10/31 01:06:43;;;;;;;0.00;0.00;;;10.40;99.90;;;;;;5060698;28;20037;-74
2023/10/31 01:09:10;;;;;;;0.52;0.52;;;10.30;99.90;;;;;;5045472;28;20041;-75
2023/10/31 01:11:36;;;;;;;0.00;0.00;;;10.30;99.90;;;;;;5051711;28;20041;-75
2023/10/31 01:14:03;;;;;;;0.30;0.30;;;10.30;99.90;;;;;;5047520;28;20025;-75
2023/10/31 01:16:30;;;;;;;0.10;0.10;;;10.30;99.90;;;;;;5048974;28;20060;-74
2023/10/31 01:18:56;;;;;;;0.03;0.03;;;10.20;99.90;;;;;;5032209;28;20055;-75
2023/10/31 01:21:22;;;;;;;0.00;0.00;;;10.30;99.90;;;;;;5021653;28;20037;-76
2023/10/31 01:23:49;;;;;;;0.00;0.00;;;10.30;99.90;;;;;;5032850;28;20041;-75
2023/10/31 01:26:15;;;;;;;0.00;0.00;;;10.30;99.90;;;;;;5046784;28;20041;-75
2023/10/31 01:28:41;;;;;;;0.00;0.00;;;10.20;99.90;;;;;;5028647;28;20045;-75
2023/10/31 01:31:08;;;;;;;0.00;0.00;;;10.30;99.90;;;;;;5049429;28;20055;-74
2023/10/31 01:33:35;;;;;;;0.00;0.00;;;10.20;99.90;;;;;;5049418;28;20032;-73
2023/10/31 01:36:01;;;;;;;0.10;0.10;;;10.20;99.90;;;;;;5048546;28;20048;-74
2023/10/31 01:38:28;;;;;;;0.22;0.22;;;10.30;99.90;;;;;;5047858;28;20036;-74
2023/10/31 01:40:54;;;;;;;0.10;0.10;;;10.20;99.90;;;;;;5015890;28;20044;-73
2023/10/31 01:43:34;;;;;;;0.00;0.00;;;10.10;99.90;;;;;;5031840;28;20509;-74
2023/10/31 01:46:01;;;;;;;0.00;0.00;;;10.10;99.90;;;;;;5048146;28;20041;-74
2023/10/31 01:48:32;;;;;;;0.10;0.10;;;10.10;99.90;;;;;;5036249;28;20029;-74
2023/10/31 01:51:01;;;;;;;0.00;0.00;;;10.10;99.90;;;;;;5055654;28;20040;-73
2023/10/31 01:53:28;;;;;;;0.10;0.10;;;10.20;99.90;;;;;;5037539;28;20048;-74
2023/10/31 01:55:56;;;;;;;0.10;0.10;;;10.10;99.90;;;;;;5051866;28;20043;-74
2023/10/31 01:58:28;;;;;;;0.70;0.30;;;10.10;99.90;;;;;;5034380;28;20041;-73
2023/10/31 02:00:55;;;;;;;0.10;0.10;;;10.20;99.90;;;;;;5034140;28;20041;-73
2023/10/31 02:03:22;;;;;;;0.25;0.20;;;10.20;99.90;;;;;;5052081;28;20040;-74
2023/10/31 02:05:48;;;;;;;0.00;0.00;;;10.10;99.90;;;;;;5034909;28;20493;-75
2023/10/31 02:08:14;;;;;;;0.43;0.43;;;10.10;99.90;;;;;;5050398;28;20052;-74
2023/10/31 02:10:40;;;;;;;0.00;0.00;;;10.10;99.90;;;;;;5054365;28;20059;-74
2023/10/31 02:13:13;;;;;;;0.10;0.10;;;10.10;99.90;;;;;;5014826;28;20044;-74
2023/10/31 02:15:40;;;;;;;0.15;0.15;;;10.00;99.90;;;;;;5050083;28;20068;-73
2023/10/31 02:18:06;;;;;;;0.20;0.20;;;10.00;99.90;;;;;;5036134;28;20040;-73
2023/10/31 02:20:33;;;;;;;0.10;0.10;;;10.00;99.90;;;;;;5027585;28;20048;-73
2023/10/31 02:23:01;;;;;;;0.30;0.20;;;10.00;99.90;;;;;;5053344;28;20143;-75
2023/10/31 02:25:30;;;;;;;3.20;0.52;;;9.90;99.90;;;;;;5039378;28;20059;-74
2023/10/31 02:27:58;;;;;;;0.43;0.43;;;9.90;99.90;;;;;;5037833;28;20052;-74
2023/10/31 02:30:25;;;;;;;0.10;0.10;;;9.90;99.90;;;;;;5038645;28;20495;-74
2023/10/31 02:32:51;;;;;;;0.10;0.10;;;9.90;99.90;;;;;;5051095;28;20033;-73
2023/10/31 02:35:18;;;;;;;0.15;0.15;;;10.00;99.90;;;;;;5050660;28;20029;-73
2023/10/31 02:37:45;;;;;;;0.08;0.08;;;10.10;99.90;;;;;;5052661;28;20470;-74
2023/10/31 02:40:13;;;;;;;0.10;0.10;;;10.00;99.90;;;;;;5051183;28;20489;-74
2023/10/31 02:42:39;;;;;;;0.10;0.10;;;10.10;99.90;;;;;;5053319;28;20474;-74
2023/10/31 02:45:06;;;;;;;0.90;0.52;;;10.10;99.90;;;;;;5028030;28;20462;-74
2023/10/31 02:47:33;;;;;;;0.20;0.20;;;10.10;99.90;;;;;;5052922;28;20461;-73
2023/10/31 02:49:59;;;;;;;0.10;0.10;;;10.20;99.90;;;;;;5049473;28;20051;-73
2023/10/31 02:52:25;;;;;;;0.10;0.10;;;10.20;99.90;;;;;;5050959;28;20061;-73
2023/10/31 02:54:51;;;;;;;0.75;0.30;;;10.20;99.90;;;;;;5049385;28;20029;-73
2023/10/31 02:57:17;;;;;;;0.85;0.70;;;10.20;99.90;;;;;;5052079;28;20037;-73
2023/10/31 02:59:44;;;;;;;0.10;0.10;;;10.20;99.90;;;;;;5033655;28;20041;-74
2023/10/31 03:02:11;;;;;;;0.32;0.30;;;10.20;99.90;;;;;;5033389;28;20037;-73
2023/10/31 03:04:37;;;;;;;0.75;0.75;;;10.20;99.90;;;;;;5048904;28;20035;-74
2023/10/31 03:07:04;;;;;;;0.10;0.10;;;10.20;99.90;;;;;;5042964;28;20044;-74
2023/10/31 03:09:30;;;;;;;0.35;0.28;;;10.20;99.90;;;;;;5052682;28;20033;-73
2023/10/31 03:11:56;;;;;;;0.10;0.10;;;10.20;99.90;;;;;;5033823;28;20041;-74
2023/10/31 03:14:23;;;;;;;0.55;0.40;;;10.20;99.90;;;;;;5049039;28;20041;-73
2023/10/31 03:16:49;;;;;;;0.20;0.20;;;10.20;99.90;;;;;;5034925;28;20052;-73
2023/10/31 03:19:15;;;;;;;0.30;0.30;;;10.10;99.90;;;;;;5051947;28;20029;-74
2023/10/31 03:21:41;;;;;;;0.05;0.05;;;9.90;99.90;;;;;;5039260;28;20056;-74
2023/10/31 03:24:08;;;;;;;0.10;0.10;;;9.90;99.90;;;;;;5048901;28;20063;-73
2023/10/31 03:26:34;;;;;;;0.52;0.52;;;9.80;99.90;;;;;;5050392;28;20029;-73
2023/10/31 03:29:00;;;;;;;0.00;0.00;;;9.90;99.90;;;;;;5051303;28;20041;-72
2023/10/31 03:31:26;;;;;;;0.10;0.10;;;9.80;99.90;;;;;;5051273;28;20037;-73
2023/10/31 03:33:53;;;;;;;0.10;0.10;;;9.80;99.90;;;;;;5031524;28;20045;-73
2023/10/31 03:36:20;;;;;;;0.10;0.10;;;9.80;99.90;;;;;;5049862;28;20049;-73
2023/10/31 03:38:46;;;;;;;0.10;0.10;;;9.80;99.90;;;;;;5052639;28;20033;-73
2023/10/31 03:41:13;;;;;;;0.00;0.00;;;9.80;99.90;;;;;;5049133;28;20096;-73
2023/10/31 03:43:39;;;;;;;0.10;0.10;;;9.80;99.90;;;;;;5050968;28;20028;-73
2023/10/31 03:46:06;;;;;;;0.08;0.08;;;9.90;99.90;;;;;;5036958;28;20382;-74
2023/10/31 03:48:32;;;;;;;0.17;0.17;;;10.00;99.90;;;;;;5050641;28;20056;-73
2023/10/31 03:50:58;;;;;;;0.32;0.32;;;10.00;99.90;;;;;;5016715;28;20048;-73
2023/10/31 03:53:24;;;;;;;0.20;0.20;;;10.10;99.90;;;;;;5049439;28;20033;-73
2023/10/31 03:55:50;;;;;;;0.20;0.20;;;10.10;99.90;;;;;;5050698;28;20462;-73
2023/10/31 03:58:17;;;;;;;1.02;0.45;;;10.10;99.90;;;;;;5033322;28;20041;-73
2023/10/31 04:00:43;;;;;;;0.10;0.10;;;10.10;99.90;;;;;;5015607;28;20037;-73
2023/10/31 04:03:09;;;;;;;0.13;0.13;;;10.20;99.90;;;;;;5050213;28;20037;-73
2023/10/31 04:05:36;;;;;;;0.25;0.25;;;10.20;99.90;;;;;;5048596;28;20029;-73
2023/10/31 04:08:02;;;;;;;0.10;0.10;;;10.30;99.90;;;;;;5051046;28;20041;-73
2023/10/31 04:10:28;;;;;;;0.25;0.25;;;10.30;99.90;;;;;;5049459;28;20032;-73
2023/10/31 04:12:54;;;;;;;0.17;0.17;;;10.20;99.90;;;;;;5050604;28;20029;-73
2023/10/31 04:15:21;;;;;;;0.20;0.20;;;10.20;99.90;;;;;;5047956;28;20036;-73
2023/10/31 04:17:47;;;;;;;0.55;0.35;;;10.20;99.90;;;;;;5049662;28;20041;-73
2023/10/31 04:20:13;;;;;;;0.15;0.15;;;10.30;99.90;;;;;;5050349;28;20044;-74
2023/10/31 04:22:39;;;;;;;0.28;0.28;;;10.30;99.90;;;;;;5037892;28;20687;-73
2023/10/31 04:25:06;;;;;;;0.20;0.20;;;10.20;99.90;;;;;;5052792;28;20404;-73
2023/10/31 04:27:32;;;;;;;0.20;0.20;;;10.20;99.90;;;;;;5050756;28;20037;-74
2023/10/31 04:29:58;;;;;;;1.00;0.47;;;10.30;99.90;;;;;;5045297;28;20033;-74
2023/10/31 04:32:24;;;;;;;0.03;0.03;;;10.30;99.90;;;;;;5051907;28;20398;-74
2023/10/31 04:34:50;;;;;;;0.20;0.20;;;10.20;99.90;;;;;;5014914;28;20038;-73
2023/10/31 04:37:17;;;;;;;1.02;0.80;;;10.30;99.90;;;;;;5033111;28;20047;-73
2023/10/31 04:39:43;;;;;;;0.20;0.20;;;10.30;99.90;;;;;;5035718;28;20060;-73
2023/10/31 04:42:09;;;;;;;2.40;0.45;;;10.30;99.90;;;;;;5050292;28;20036;-74
2023/10/31 04:44:35;;;;;;;0.10;0.10;;;10.30;99.90;;;;;;5047261;28;20041;-73
2023/10/31 04:47:01;;;;;;;0.32;0.32;;;10.30;99.90;;;;;;5050383;28;20371;-73
2023/10/31 04:49:27;;;;;;;0.55;0.25;;;10.30;99.90;;;;;;5049610;28;20481;-73
2023/10/31 04:51:54;;;;;;;1.63;0.22;;;10.30;99.90;;;;;;5051418;28;20042;-73
2023/10/31 04:54:20;;;;;;;0.30;0.30;;;10.30;99.90;;;;;;5047785;28;20033;-74
2023/10/31 04:56:47;;;;;;;0.47;0.38;;;10.30;99.90;;;;;;5032293;28;20043;-73
2023/10/31 04:59:13;;;;;;;0.00;0.00;;;10.50;99.90;;;;;;5029390;28;20045;-73
2023/10/31 05:01:40;;;;;;;0.52;0.52;;;10.40;99.90;;;;;;5049589;28;20493;-74
2023/10/31 05:04:06;;;;;;;0.10;0.10;;;10.40;99.90;;;;;;5046934;28;20080;-73
2023/10/31 05:06:32;;;;;;;0.15;0.15;;;10.40;99.90;;;;;;5049637;28;20362;-74
2023/10/31 05:08:59;;;;;;;0.10;0.10;;;10.30;99.90;;;;;;5047088;28;20041;-73
2023/10/31 05:11:25;;;;;;;0.20;0.10;;;10.20;99.90;;;;;;5049184;28;20383;-74
2023/10/31 05:13:51;;;;;;;0.17;0.17;;;10.20;99.90;;;;;;5047451;28;20037;-75
2023/10/31 05:16:17;;;;;;;0.00;0.00;;;10.20;99.90;;;;;;5048725;28;20483;-75
2023/10/31 05:18:43;;;;;;;0.10;0.10;;;10.20;99.90;;;;;;5051209;28;20048;-74
2023/10/31 05:21:09;;;;;;;0.10;0.10;;;10.10;99.90;;;;;;5032810;28;20052;-74
2023/10/31 05:23:36;;;;;;;0.20;0.20;;;10.20;99.90;;;;;;5046772;28;20048;-75
2023/10/31 05:26:05;;;;;;;0.10;0.10;;;10.10;99.90;;;;;;5047975;28;20036;-74
2023/10/31 05:28:31;;;;;;;0.10;0.10;;;10.10;99.90;;;;;;5047035;28;20395;-75
2023/10/31 05:30:58;;;;;;;0.20;0.20;;;10.10;99.90;;;;;;5030672;28;20060;-74
2023/10/31 05:33:24;;;;;;;0.10;0.10;;;10.10;99.90;;;;;;5046475;28;20040;-75
2023/10/31 05:35:50;;;;;;;0.70;0.70;;;10.10;99.90;;;;;;5047098;28;20033;-74
2023/10/31 05:38:16;;;;;;;0.40;0.30;;;10.10;99.90;;;;;;5048891;28;20504;-75
2023/10/31 05:40:43;;;;;;;0.20;0.20;;;10.10;99.90;;;;;;5047299;28;20032;-75
2023/10/31 05:43:09;;;;;;;0.90;0.80;;;10.10;99.90;;;;;;5033105;28;20037;-74
2023/10/31 05:45:35;;;;;;;0.15;0.15;;;10.10;99.90;;;;;;5026476;28;20041;-75
2023/10/31 05:48:01;;;;;;;2.05;0.47;;;10.10;99.90;;;;;;5038316;28;20056;-74
2023/10/31 05:50:27;;;;;;;0.20;0.20;;;10.10;99.90;;;;;;5022684;28;20406;-74
2023/10/31 05:52:53;;;;;;;0.35;0.35;;;10.20;99.90;;;;;;5021548;28;20414;-74
2023/10/31 05:55:20;;;;;;;0.10;0.10;;;10.10;99.90;;;;;;5047447;28;20092;-74
2023/10/31 05:57:46;;;;;;;0.10;0.10;;;10.20;99.90;;;;;;5049553;28;20040;-75
2023/10/31 06:00:13;;;;;;;0.73;0.55;;;10.10;99.90;;;;;;5049535;28;20029;-76
2023/10/31 06:02:39;;;;;;;0.10;0.10;;;10.20;99.90;;;;;;5050073;28;20038;-76
2023/10/31 06:05:06;;;;;;;0.10;0.10;;;10.20;99.90;;;;;;5046716;28;20036;-76
2023/10/31 06:07:32;;;;;;;0.10;0.10;;;10.20;99.90;;;;;;5030107;28;20036;-76
2023/10/31 06:09:58;;;;;;;0.38;0.30;;;10.20;99.90;;;;;;5048163;28;20048;-75
2023/10/31 06:12:24;;;;;;;0.30;0.30;;;10.20;99.90;;;;;;5047461;28;20036;-75
2023/10/31 06:14:50;;;;;;;0.10;0.10;;;10.20;99.90;;;;;;5030908;28;20056;-75
2023/10/31 06:17:17;;;;;;;0.00;0.00;;;10.20;99.90;;;;;;5048959;28;20453;-75
2023/10/31 06:19:45;;;;;;;0.00;0.00;;;10.20;99.90;;;;;;5049129;28;20040;-75
2023/10/31 06:22:12;;;;;;;0.30;0.30;;;10.20;99.90;;;;;;5047574;28;20040;-75
2023/10/31 06:24:40;;;;;;;1.27;0.50;;;10.20;99.90;;;;;;5029269;28;20382;-75
2023/10/31 06:27:06;;;;;;;0.52;0.20;;;10.20;99.90;;;;;;5048077;28;20037;-75
2023/10/31 06:29:33;;;;;;;0.40;0.40;;;10.20;99.90;;;;;;5048826;28;20060;-76
2023/10/31 06:31:59;;;;;;;0.45;0.45;;;10.20;99.90;;;;;;5031055;28;20044;-76
2023/10/31 06:34:25;;;;;;;0.03;0.03;;;10.20;99.90;;;;;;5030391;28;20036;-75
2023/10/31 06:36:52;;;;;;;0.40;0.40;;;10.30;99.90;;;;;;5029914;28;20057;-76
2023/10/31 06:39:18;;;;;;;0.45;0.20;;;10.20;99.90;;;;;;5051427;28;20033;-76
2023/10/31 06:41:44;;;;;;;0.73;0.73;;;10.30;99.90;;;;;;5049643;28;20492;-76
2023/10/31 06:44:10;;;;;;;1.35;0.38;;;10.30;99.90;;;;;;5049441;28;20038;-76
2023/10/31 06:46:37;;;;;;;0.10;0.10;;;10.30;99.90;;;;;;5033538;28;20033;-76
2023/10/31 06:49:03;;;;;;;0.10;0.10;;;10.30;99.90;;;;;;5053181;28;20052;-75
2023/10/31 06:51:29;;;;;;;0.30;0.30;;;10.30;99.90;;;;;;5049840;28;20029;-76
2023/10/31 06:53:56;;;;;;;0.20;0.20;;;10.30;99.90;;;;;;5032924;28;20044;-76
2023/10/31 06:56:22;;;;;;;0.10;0.10;;;10.30;99.90;;;;;;5029831;28;20045;-76
2023/10/31 06:58:48;;;;;;;0.57;0.40;;;10.30;99.90;;;;;;5035970;28;20037;-75
2023/10/31 07:01:18;;;;;;;0.40;0.40;;;10.40;99.90;;;;;;5034521;28;20419;-76
2023/10/31 07:03:44;;;;;;;0.17;0.17;;;10.40;99.90;;;;;;5029966;28;20052;-76
2023/10/31 07:06:10;;;;;;;0.00;0.00;;;10.40;99.90;;;;;;5032907;28;20045;-76
2023/10/31 07:08:37;;;;;;;0.52;0.50;;;10.40;99.90;;;;;;5029059;28;20055;-75
2023/10/31 07:11:03;;;;;;;0.55;0.32;;;10.40;99.90;;;;;;5037953;28;20087;-75
2023/10/31 07:13:30;;;;;;;0.03;0.03;;;10.40;99.90;;;;;;5027374;28;20040;-75
2023/10/31 07:15:57;;;;;;;0.10;0.10;;;10.40;99.90;;;;;;5034907;28;20049;-76
2023/10/31 07:18:23;;;;;;;0.08;0.08;;;10.40;99.90;;;;;;5017332;28;20051;-76
2023/10/31 07:20:49;;;;;;;0.22;0.22;;;10.40;99.90;;;;;;5032003;28;20052;-76
2023/10/31 07:23:15;;;;;;;0.10;0.10;;;10.50;99.90;;;;;;5050532;28;20036;-75
2023/10/31 07:25:43;;;;;;;0.90;0.55;;;10.50;99.90;;;;;;5048719;28;20048;-74
2023/10/31 07:28:09;;;;;;;0.57;0.38;;;10.50;99.90;;;;;;5050765;28;20037;-75
2023/10/31 07:30:35;;;;;;;0.10;0.10;;;10.50;95.10;;;;;;5050118;28;20542;-75
2023/10/31 07:33:02;;;;;;;0.20;0.17;;;10.50;78.80;;;;;;5031708;28;20389;-75
2023/10/31 07:35:28;;;;;;;6.65;0.52;;;10.60;33.80;;;;;;5049099;28;20504;-74
2023/10/31 07:37:54;;;;;;;0.15;0.15;;;10.70;83.60;;;;;;5032505;28;20406;-75
2023/10/31 07:40:20;;;;;;;0.30;0.30;;;10.70;67.20;;;;;;5033192;28;20094;-74
2023/10/31 07:42:47;;;;;;;13.68;2.17;;;10.70;14.70;;;;;;5038728;28;20371;-76
2023/10/31 07:45:13;;;;;;;0.17;0.17;;;10.80;1.00;;;;;;5050077;28;20037;-74
2023/10/31 07:47:39;;;;;;;0.10;0.10;;;10.80;25.10;;;;;;5032046;28;20397;-75
2023/10/31 07:50:06;;;;;;;0.50;0.30;;;10.80;17.90;;;;;;5026646;28;20045;-75
2023/10/31 07:52:32;;;;;;;0.40;0.30;;;10.90;19.10;;;;;;5048051;28;20040;-74
2023/10/31 07:54:58;;;;;;;0.20;0.20;;;10.90;21.60;;;;;;5040453;28;20052;-75
2023/10/31 07:57:24;;;;;;;0.43;0.32;;;10.90;1.20;;;;;;5030609;28;20036;-75
2023/10/31 07:59:51;;;;;;;0.28;0.28;;;10.90;1.00;;;;;;4999564;28;20052;-75
2023/10/31 08:02:17;;;;;;;0.10;0.10;;;11.00;1.00;;;;;;5013846;28;20049;-75
2023/10/31 08:04:43;;;;;;;0.10;0.10;;;11.00;1.00;;;;;;5012918;28;20072;-74
2023/10/31 08:07:10;;;;;;;0.20;0.20;;;11.00;1.00;;;;;;5024299;28;20067;-75
2023/10/31 08:09:36;;;;;;;0.10;0.10;;;11.00;1.00;;;;;;5031160;28;20048;-75
2023/10/31 08:12:03;;;;;;;0.00;0.00;;;11.00;1.00;;;;;;5040646;28;20884;-75
2023/10/31 08:14:29;;;;;;;0.30;0.30;;;11.00;1.00;;;;;;5049349;28;20044;-75
2023/10/31 08:16:55;;;;;;;0.10;0.10;;;11.00;1.00;;;;;;5048074;28;20057;-75
2023/10/31 08:19:22;;;;;;;0.00;0.00;;;11.10;1.00;;;;;;5029897;28;20048;-74
2023/10/31 08:21:49;;;;;;;0.10;0.10;;;11.10;1.00;;;;;;5033176;28;20037;-76
2023/10/31 08:24:15;;;;;;;0.05;0.05;;;11.20;1.00;;;;;;5027201;28;20045;-75
2023/10/31 08:26:41;;;;;;;0.10;0.10;;;11.20;1.00;;;;;;5037573;28;20044;-75
2023/10/31 08:29:07;;;;;;;0.20;0.20;;;11.20;1.00;;;;;;5050523;28;20040;-76
2023/10/31 08:31:34;;;;;;;0.10;0.10;;;11.20;1.00;;;;;;5025202;28;20041;-75
2023/10/31 08:34:00;;;;;;;0.10;0.10;;;11.20;1.00;;;;;;5027832;28;20048;-75
2023/10/31 08:36:26;;;;;;;0.08;0.08;;;11.20;1.00;;;;;;5024913;28;20045;-76
2023/10/31 08:38:53;;;;;;;1.13;0.25;;;11.30;1.00;;;;;;5036584;28;20044;-76
2023/10/31 08:41:20;;;;;;;0.10;0.10;;;11.30;1.00;;;;;;5029534;28;20029;-75
2023/10/31 08:43:46;;;;;;;0.10;0.10;;;11.40;1.00;;;;;;5050173;28;20033;-75
2023/10/31 08:46:13;;;;;;;0.20;0.20;;;11.50;1.00;;;;;;5033394;28;20044;-76
2023/10/31 08:48:39;;;;;;;0.22;0.15;;;11.50;1.00;;;;;;5030261;28;20045;-76
2023/10/31 08:51:06;;;;;;;0.55;0.10;;;11.60;1.00;;;;;;5027521;28;20037;-75
2023/10/31 08:53:32;;;;;;;0.00;0.00;;;11.60;1.00;;;;;;5049146;28;20036;-76
2023/10/31 08:55:58;;;;;;;0.00;0.00;;;11.60;1.00;;;;;;5035006;28;20044;-76
2023/10/31 08:58:25;;;;;;;0.00;0.00;;;11.60;1.00;;;;;;5048961;28;20478;-76
2023/10/31 09:00:51;;;;;;;0.00;0.00;;;11.70;1.00;;;;;;5040584;28;20041;-76
2023/10/31 09:03:17;;;;;;;0.20;0.20;;;11.70;1.00;;;;;;5035170;28;20033;-75
2023/10/31 09:05:44;;;;;;;0.10;0.10;;;11.90;1.00;;;;;;5049324;28;20060;-76
2023/10/31 09:08:10;;;;;;;0.20;0.20;;;12.10;1.00;;;;;;5049356;28;20045;-76
2023/10/31 09:10:38;;;;;;;0.10;0.10;;;12.30;1.00;;;;;;5016276;28;20059;-76
2023/10/31 09:13:04;;;;;;;0.20;0.20;;;12.40;99.90;;;;;;5049679;28;20037;-76
2023/10/31 09:15:31;;;;;;;0.08;0.08;;;12.60;1.00;;;;;;5029736;28;20060;-76
2023/10/31 09:17:57;;;;;;;0.38;0.35;;;12.70;99.90;;;;;;5021278;28;20482;-78
2023/10/31 09:20:24;;;;;;;0.22;0.22;;;12.80;99.90;;;;;;5043156;28;20033;-76
2023/10/31 09:22:50;;;;;;;0.10;0.10;;;12.80;99.90;;;;;;5017697;28;20041;-76
2023/10/31 09:25:16;;;;;;;0.00;0.00;;;12.90;99.90;;;;;;5031057;28;20037;-76
2023/10/31 09:27:42;;;;;;;0.68;0.30;;;13.00;99.90;;;;;;5034098;28;20052;-76
2023/10/31 09:30:09;;;;;;;0.08;0.08;;;13.00;99.90;;;;;;5030929;28;20052;-76
2023/10/31 09:32:35;;;;;;;0.15;0.15;;;12.90;99.90;;;;;;5036675;28;20485;-76
2023/10/31 09:35:02;;;;;;;0.10;0.10;;;13.00;99.90;;;;;;5029834;28;20052;-76
2023/10/31 09:37:28;;;;;;;0.15;0.15;;;13.00;99.90;;;;;;5029447;28;20040;-76
2023/10/31 09:39:55;;;;;;;0.10;0.10;;;13.10;99.90;;;;;;5032829;28;20040;-76
2023/10/31 09:42:22;;;;;;;0.05;0.05;;;13.10;99.90;;;;;;5037593;28;20044;-76
2023/10/31 09:44:48;;;;;;;0.13;0.13;;;13.10;99.90;;;;;;5056008;28;20033;-76
2023/10/31 09:47:15;;;;;;;0.82;0.57;;;13.00;99.90;;;;;;5058381;28;20025;-75
2023/10/31 09:49:42;;;;;;;0.17;0.17;;;13.10;99.90;;;;;;5034074;28;20061;-77
2023/10/31 09:52:09;;;;;;;0.10;0.10;;;13.20;99.90;;;;;;5016504;28;20045;-74
2023/10/31 09:54:38;;;;;;;0.10;0.10;;;13.30;99.90;;;;;;5045796;28;20037;-75
2023/10/31 09:57:04;;;;;;;0.05;0.05;;;13.60;99.90;;;;;;5030793;28;20040;-76
2023/10/31 09:59:31;;;;;;;0.20;0.20;;;13.90;99.90;;;;;;5026285;28;20037;-76
2023/10/31 10:01:57;;;;;;;0.88;0.55;;;13.90;99.90;;;;;;5032896;28;20044;-75
2023/10/31 10:04:23;;;;;;;0.30;0.30;;;13.90;99.90;;;;;;5047227;28;20359;-76
2023/10/31 10:08:16;;;;;;;0.10;0.10;;;13.60;99.90;;;;;;5075550;27;20640;-76
2023/10/31 10:10:43;;;;;;;0.10;0.10;;;13.50;99.90;;;;;;5055912;28;20628;-78
2023/10/31 10:13:10;;;;;;;0.35;0.35;;;13.40;99.90;;;;;;5059109;28;20029;-78
2023/10/31 10:15:49;;;;;;;0.20;0.20;;;13.30;99.90;;;;;;5104346;28;20036;-79
2023/10/31 10:18:26;;;;;;;0.13;0.13;;;13.30;99.90;;;;;;5104790;28;20040;-79
2023/10/31 10:20:59;;;;;;;0.10;0.10;;;13.40;99.90;;;;;;5088825;28;20039;-78
2023/10/31 10:23:28;;;;;;;0.22;0.22;;;13.30;99.90;;;;;;5087960;28;20039;-79
2023/10/31 10:25:56;;;;;;;0.10;0.10;;;13.40;99.90;;;;;;5071771;28;20036;-77
2023/10/31 10:28:24;;;;;;;0.55;0.55;;;13.40;99.90;;;;;;5091304;28;20051;-79
2023/10/31 10:30:52;;;;;;;0.05;0.05;;;13.40;99.90;;;;;;5088382;28;20031;-77
2023/10/31 10:33:18;;;;;;;2.08;1.10;;;13.50;99.90;;;;;;5089579;28;20098;-79
2023/10/31 10:35:44;;;;;;;0.10;0.10;;;13.60;99.90;;;;;;5069910;28;20046;-78
2023/10/31 10:38:16;;;;;;;0.10;0.10;;;13.70;99.90;;;;;;5071011;28;20118;-77
2023/10/31 10:40:45;;;;;;;1.23;0.63;;;13.80;99.90;;;;;;5086161;28;20456;-78
2023/10/31 10:43:23;;;;;;;1.08;0.50;;;13.90;99.90;;;;;;5088218;28;20481;-79
2023/10/31 10:45:57;;;;;;;1.85;0.10;;;14.00;99.90;;;;;;5097745;28;20052;-78
2023/10/31 10:48:26;;;;;;;0.10;0.10;;;13.80;99.90;;;;;;5055063;28;20040;-78
2023/10/31 10:51:18;;;;;;;0.00;0.00;;;13.90;93.60;;;;;;5043730;28;20092;-77
2023/10/31 10:53:50;;;;;;;0.10;0.10;;;13.70;93.20;;;;;;5043011;28;20048;-77
2023/10/31 10:56:28;;;;;;;0.10;0.10;;;13.80;99.90;;;;;;5053170;28;20048;-78
2023/10/31 10:59:01;;;;;;;0.20;0.20;;;13.90;96.10;;;;;;5045097;28;20044;-76
2023/10/31 11:01:28;;;;;;;1.10;0.80;;;14.00;99.90;;;;;;5061311;28;20032;-78
2023/10/31 11:03:55;;;;;;;0.25;0.25;;;14.20;95.10;;;;;;5085836;28;20048;-77
2023/10/31 11:06:25;;;;;;;0.70;0.65;;;14.30;44.50;;;;;;5063152;28;20053;-77
2023/10/31 11:08:53;;;;;;;0.10;0.10;;;14.10;35.60;;;;;;5061171;28;20346;-78
2023/10/31 11:11:20;;;;;;;0.20;0.20;;;14.20;1.00;;;;;;5058864;28;20033;-78
2023/10/31 11:13:46;;;;;;;0.10;0.10;;;14.10;16.80;;;;;;5054456;28;20055;-77
2023/10/31 11:16:52;;;;;;;0.15;0.15;;;14.10;25.30;;;;;;5052315;28;20367;-77
2023/10/31 11:19:19;;;;;;;0.10;0.10;;;13.90;40.10;;;;;;5078170;28;20053;-76
2023/10/31 11:22:00;;;;;;;0.10;0.10;;;13.90;40.20;;;;;;5067747;28;20048;-75
2023/10/31 11:24:28;;;;;;;0.75;0.40;;;13.80;21.10;;;;;;5045589;28;20401;-76
2023/10/31 11:26:59;;;;;;;1.48;1.02;;;13.80;13.70;;;;;;5023519;28;20041;-75
2023/10/31 11:29:26;;;;;;;2.22;0.25;;;13.70;26.30;;;;;;5041932;28;20047;-75
2023/10/31 11:31:56;;;;;;;0.57;0.30;;;13.70;19.80;;;;;;5046101;28;20037;-77
2023/10/31 11:34:29;;;;;;;0.20;0.20;;;13.70;48.10;;;;;;5099599;28;20145;-76
2023/10/31 11:37:29;;;;;;;1.08;0.30;;;13.90;31.50;;;;;;5071348;28;20508;-77
2023/10/31 11:40:14;;;;;;;0.15;0.15;;;14.00;2.90;;;;;;5075929;28;20389;-77
2023/10/31 11:42:47;;;;;;;0.10;0.10;;;14.10;1.00;;;;;;5086917;28;20472;-76
2023/10/31 11:45:29;;;;;;;0.00;0.00;;;14.30;14.70;;;;;;5083560;28;20043;-75
2023/10/31 11:47:55;;;;;;;;;;;14.50;1.00;;;;;;5068349;28;20055;-76
2023/10/31 11:50:23;;;;;;;3.53;1.35;;;14.50;1.00;;;;;;5093792;28;19907;-77
2023/10/31 11:53:04;;;;;;;3.53;0.77;;;14.60;1.00;;;;;;5107796;28;20041;-76
2023/10/31 11:55:40;;;;;;;0.10;0.10;;;14.60;1.00;;;;;;5098835;28;20052;-77
2023/10/31 11:58:16;;;;;;;0.10;0.10;;;14.40;1.00;;;;;;5079768;28;20067;-77
2023/10/31 12:00:45;;;;;;;0.10;0.10;;;14.40;1.00;;;;;;5080765;28;20046;-78
2023/10/31 12:03:12;;;;;;;0.43;0.43;;;14.40;1.00;;;;;;5105373;28;20040;-77
2023/10/31 12:05:39;;;;;;;0.10;0.10;;;14.40;1.00;;;;;;5068450;28;20052;-77
2023/10/31 12:08:05;;;;;;;0.20;0.20;;;14.50;1.00;;;;;;5045448;28;20076;-77
2023/10/31 12:10:32;;;;;;;0.10;0.10;;;14.40;1.00;;;;;;5067233;28;20048;-78
2023/10/31 12:12:59;;;;;;;0.10;0.10;;;14.50;1.00;;;;;;5076536;28;20033;-78
2023/10/31 12:15:26;;;;;;;0.20;0.20;;;14.40;1.00;;;;;;5048579;28;20049;-77
2023/10/31 12:17:57;;;;;;;0.15;0.15;;;14.40;1.00;;;;;;5074355;28;20044;-77
2023/10/31 12:20:24;;;;;;;0.10;0.10;;;14.50;1.00;;;;;;5067982;28;20037;-77
2023/10/31 12:23:03;;;;;;;0.10;0.10;;;14.50;1.00;;;;;;5042238;27;20045;-77
2023/10/31 12:25:29;;;;;;;0.20;0.20;;;14.40;1.00;;;;;;5047791;28;20044;-77
2023/10/31 12:27:55;;;;;;;1.88;0.40;;;14.40;1.00;;;;;;5051123;28;20033;-77
2023/10/31 12:30:22;;;;;;;0.10;0.10;;;14.50;1.00;;;;;;5053931;28;20064;-76
2023/10/31 12:32:56;;;;;;;0.15;0.15;;;14.70;1.00;;;;;;5032288;28;20037;-77
2023/10/31 12:35:25;;;;;;;0.10;0.10;;;14.70;1.00;;;;;;5038218;28;20057;-76
2023/10/31 12:37:52;;;;;;;0.10;0.10;;;14.80;1.00;;;;;;5023902;28;20044;-77
2023/10/31 12:40:20;;;;;;;1.17;0.20;;;15.00;1.00;;;;;;5042216;28;20039;-77
2023/10/31 12:42:48;;;;;;;1.38;0.25;;;15.10;1.00;;;;;;5043330;28;20040;-77
2023/10/31 12:45:16;;;;;;;0.10;0.10;;;15.10;1.00;;;;;;5043357;28;20044;-76
2023/10/31 12:47:42;;;;;;;0.30;0.30;;;15.10;1.00;;;;;;5039820;28;20411;-76
2023/10/31 12:50:13;;;;;;;0.20;0.20;;;15.20;1.00;;;;;;5046342;28;20041;-76
2023/10/31 12:52:53;;;;;;;1.65;0.40;;;15.10;1.00;;;;;;5047894;28;20044;-77